Terminal Aerodrome Forecast
Issued by NWS Tampa Bay Area, FL

Home | Current Version | Previous Version | Text Only | Print | Product List | Glossary On
Versions: 1 2 3 4 5 6 7 8 9 10 11 12 13 14 15 16 17 18 19 20 21 22 23 24 25
000
FTUS42 KTBW 231700 RRA
TAFTPA
TAF
KTPA 231743Z 2318/2418 26006KT P6SM VCTS SCT040CB SCT250
     FM240100 VRB03KT P6SM FEW030 SCT250
     FM241400 22006KT P6SM SCT035 SCT250=

USA.gov is the U.S. government's official web portal to all federal, state and local government web resources and services.